sensor_id;sensor_type;location;lat;lon;timestamp;P1;durP1;ratioP1;P2;durP2;ratioP2
7150;SDS011;3617;48.836;9.172;2023-05-10T00:02:08;12.73;;;0.80;;
7150;SDS011;3617;48.836;9.172;2023-05-10T00:04:34;0.67;;;0.60;;
7150;SDS011;3617;48.836;9.172;2023-05-10T00:07:00;2.70;;;0.60;;
7150;SDS011;3617;48.836;9.172;2023-05-10T00:09:26;2.63;;;0.60;;
7150;SDS011;3617;48.836;9.172;2023-05-10T00:11:52;2.13;;;0.73;;
7150;SDS011;3617;48.836;9.172;2023-05-10T00:14:18;0.63;;;0.60;;
7150;SDS011;3617;48.836;9.172;2023-05-10T00:16:44;0.50;;;0.50;;
7150;SDS011;3617;48.836;9.172;2023-05-10T00:19:10;0.60;;;0.60;;
7150;SDS011;3617;48.836;9.172;2023-05-10T00:21:36;9.23;;;0.90;;
7150;SDS011;3617;48.836;9.172;2023-05-10T00:24:03;1.03;;;0.93;;
7150;SDS011;3617;48.836;9.172;2023-05-10T00:26:29;3.40;;;0.60;;
7150;SDS011;3617;48.836;9.172;2023-05-10T00:28:55;1.70;;;0.60;;
7150;SDS011;3617;48.836;9.172;2023-05-10T00:31:21;0.40;;;0.40;;
7150;SDS011;3617;48.836;9.172;2023-05-10T00:33:47;2.00;;;0.50;;
7150;SDS011;3617;48.836;9.172;2023-05-10T00:36:13;0.73;;;0.60;;
7150;SDS011;3617;48.836;9.172;2023-05-10T00:38:39;0.40;;;0.40;;
7150;SDS011;3617;48.836;9.172;2023-05-10T00:41:05;0.60;;;0.50;;
7150;SDS011;3617;48.836;9.172;2023-05-10T00:43:31;1.80;;;0.60;;
7150;SDS011;3617;48.836;9.172;2023-05-10T00:45:57;3.00;;;0.60;;
7150;SDS011;3617;48.836;9.172;2023-05-10T00:48:24;0.80;;;0.70;;
7150;SDS011;3617;48.836;9.172;2023-05-10T00:50:50;1.17;;;0.77;;
7150;SDS011;3617;48.836;9.172;2023-05-10T00:53:16;2.60;;;0.60;;
7150;SDS011;3617;48.836;9.172;2023-05-10T00:55:42;0.50;;;0.50;;
7150;SDS011;3617;48.836;9.172;2023-05-10T00:58:08;0.50;;;0.50;;
7150;SDS011;3617;48.836;9.172;2023-05-10T01:00:34;2.30;;;0.60;;
7150;SDS011;3617;48.836;9.172;2023-05-10T01:03:01;0.73;;;0.70;;
7150;SDS011;3617;48.836;9.172;2023-05-10T01:05:27;0.60;;;0.60;;
7150;SDS011;3617;48.836;9.172;2023-05-10T01:07:53;0.50;;;0.50;;
7150;SDS011;3617;48.836;9.172;2023-05-10T01:10:19;2.53;;;0.87;;
7150;SDS011;3617;48.836;9.172;2023-05-10T01:12:45;0.60;;;0.60;;
7150;SDS011;3617;48.836;9.172;2023-05-10T01:15:12;0.60;;;0.60;;
7150;SDS011;3617;48.836;9.172;2023-05-10T01:17:39;0.80;;;0.80;;
7150;SDS011;3617;48.836;9.172;2023-05-10T01:20:07;0.73;;;0.73;;
7150;SDS011;3617;48.836;9.172;2023-05-10T01:22:48;0.80;;;0.80;;
7150;SDS011;3617;48.836;9.172;2023-05-10T01:30:35;1.30;;;0.90;;
7150;SDS011;3617;48.836;9.172;2023-05-10T01:38:13;1.30;;;1.00;;
7150;SDS011;3617;48.836;9.172;2023-05-10T01:43:08;1.00;;;0.90;;
7150;SDS011;3617;48.836;9.172;2023-05-10T01:45:37;1.40;;;0.90;;
7150;SDS011;3617;48.836;9.172;2023-05-10T01:48:06;1.00;;;0.90;;
7150;SDS011;3617;48.836;9.172;2023-05-10T01:50:32;1.47;;;1.10;;
7150;SDS011;3617;48.836;9.172;2023-05-10T01:53:00;1.10;;;1.00;;
7150;SDS011;3617;48.836;9.172;2023-05-10T01:55:28;1.27;;;1.17;;
7150;SDS011;3617;48.836;9.172;2023-05-10T01:58:03;1.13;;;1.03;;
7150;SDS011;3617;48.836;9.172;2023-05-10T02:00:30;1.20;;;1.10;;
7150;SDS011;3617;48.836;9.172;2023-05-10T02:02:56;1.10;;;1.00;;
7150;SDS011;3617;48.836;9.172;2023-05-10T02:05:22;1.20;;;1.00;;
7150;SDS011;3617;48.836;9.172;2023-05-10T02:07:50;1.80;;;1.10;;
7150;SDS011;3617;48.836;9.172;2023-05-10T02:10:17;2.27;;;1.20;;
7150;SDS011;3617;48.836;9.172;2023-05-10T02:12:44;1.03;;;0.93;;
7150;SDS011;3617;48.836;9.172;2023-05-10T02:15:11;1.30;;;1.20;;
7150;SDS011;3617;48.836;9.172;2023-05-10T02:17:38;2.77;;;1.10;;
7150;SDS011;3617;48.836;9.172;2023-05-10T02:20:05;2.20;;;1.27;;
7150;SDS011;3617;48.836;9.172;2023-05-10T02:22:32;1.90;;;1.53;;
7150;SDS011;3617;48.836;9.172;2023-05-10T02:24:59;1.63;;;1.10;;
7150;SDS011;3617;48.836;9.172;2023-05-10T02:27:27;1.77;;;1.30;;
7150;SDS011;3617;48.836;9.172;2023-05-10T02:29:53;1.80;;;1.33;;
7150;SDS011;3617;48.836;9.172;2023-05-10T02:32:20;1.93;;;1.30;;
7150;SDS011;3617;48.836;9.172;2023-05-10T02:34:47;2.00;;;1.60;;
7150;SDS011;3617;48.836;9.172;2023-05-10T02:37:16;4.93;;;1.60;;
7150;SDS011;3617;48.836;9.172;2023-05-10T02:39:43;1.23;;;1.13;;
7150;SDS011;3617;48.836;9.172;2023-05-10T02:42:15;2.70;;;1.17;;
7150;SDS011;3617;48.836;9.172;2023-05-10T02:44:42;2.23;;;1.30;;
7150;SDS011;3617;48.836;9.172;2023-05-10T02:47:08;1.77;;;1.10;;
7150;SDS011;3617;48.836;9.172;2023-05-10T02:49:34;2.70;;;1.50;;
7150;SDS011;3617;48.836;9.172;2023-05-10T02:52:01;1.50;;;1.30;;
7150;SDS011;3617;48.836;9.172;2023-05-10T02:54:30;1.40;;;1.30;;
7150;SDS011;3617;48.836;9.172;2023-05-10T02:56:58;3.03;;;1.50;;
7150;SDS011;3617;48.836;9.172;2023-05-10T02:59:25;1.67;;;1.40;;
7150;SDS011;3617;48.836;9.172;2023-05-10T03:01:51;2.13;;;1.40;;
7150;SDS011;3617;48.836;9.172;2023-05-10T03:04:17;1.30;;;1.20;;
7150;SDS011;3617;48.836;9.172;2023-05-10T03:06:44;1.57;;;1.47;;
7150;SDS011;3617;48.836;9.172;2023-05-10T03:09:10;2.90;;;1.50;;
7150;SDS011;3617;48.836;9.172;2023-05-10T03:16:45;2.40;;;1.60;;
7150;SDS011;3617;48.836;9.172;2023-05-10T03:19:22;2.83;;;2.23;;
7150;SDS011;3617;48.836;9.172;2023-05-10T03:21:50;4.17;;;3.27;;
7150;SDS011;3617;48.836;9.172;2023-05-10T03:24:17;5.53;;;3.47;;
7150;SDS011;3617;48.836;9.172;2023-05-10T03:26:43;9.03;;;4.60;;
7150;SDS011;3617;48.836;9.172;2023-05-10T03:29:11;8.40;;;5.13;;
7150;SDS011;3617;48.836;9.172;2023-05-10T03:31:38;7.60;;;5.43;;
7150;SDS011;3617;48.836;9.172;2023-05-10T03:34:04;8.57;;;4.87;;
7150;SDS011;3617;48.836;9.172;2023-05-10T03:36:31;12.43;;;4.87;;
7150;SDS011;3617;48.836;9.172;2023-05-10T03:38:57;4.80;;;3.80;;
7150;SDS011;3617;48.836;9.172;2023-05-10T03:41:23;6.53;;;4.13;;
7150;SDS011;3617;48.836;9.172;2023-05-10T03:43:50;5.47;;;3.70;;
7150;SDS011;3617;48.836;9.172;2023-05-10T03:46:16;4.83;;;3.50;;
7150;SDS011;3617;48.836;9.172;2023-05-10T03:48:42;4.80;;;3.30;;
7150;SDS011;3617;48.836;9.172;2023-05-10T03:51:08;3.13;;;2.40;;
7150;SDS011;3617;48.836;9.172;2023-05-10T03:53:34;3.43;;;2.43;;
7150;SDS011;3617;48.836;9.172;2023-05-10T03:56:00;3.17;;;2.40;;
7150;SDS011;3617;48.836;9.172;2023-05-10T03:58:26;3.07;;;2.37;;
7150;SDS011;3617;48.836;9.172;2023-05-10T04:00:52;3.00;;;2.37;;
7150;SDS011;3617;48.836;9.172;2023-05-10T04:03:18;4.37;;;2.60;;
7150;SDS011;3617;48.836;9.172;2023-05-10T04:05:45;3.73;;;2.23;;
7150;SDS011;3617;48.836;9.172;2023-05-10T04:08:11;8.50;;;2.77;;
7150;SDS011;3617;48.836;9.172;2023-05-10T04:10:37;5.20;;;2.60;;
7150;SDS011;3617;48.836;9.172;2023-05-10T04:13:03;4.33;;;2.40;;
7150;SDS011;3617;48.836;9.172;2023-05-10T04:15:29;2.73;;;2.10;;
7150;SDS011;3617;48.836;9.172;2023-05-10T04:17:55;4.67;;;2.67;;
7150;SDS011;3617;48.836;9.172;2023-05-10T04:20:21;3.73;;;2.70;;
7150;SDS011;3617;48.836;9.172;2023-05-10T04:22:47;7.53;;;2.77;;
7150;SDS011;3617;48.836;9.172;2023-05-10T04:25:13;4.70;;;2.33;;
7150;SDS011;3617;48.836;9.172;2023-05-10T04:27:39;3.97;;;2.47;;
7150;SDS011;3617;48.836;9.172;2023-05-10T04:30:05;4.43;;;2.10;;
7150;SDS011;3617;48.836;9.172;2023-05-10T04:32:31;4.67;;;2.10;;
7150;SDS011;3617;48.836;9.172;2023-05-10T04:34:57;2.70;;;1.90;;
7150;SDS011;3617;48.836;9.172;2023-05-10T04:37:23;2.90;;;1.97;;
7150;SDS011;3617;48.836;9.172;2023-05-10T04:39:49;8.50;;;2.20;;
7150;SDS011;3617;48.836;9.172;2023-05-10T04:42:15;4.23;;;1.70;;
7150;SDS011;3617;48.836;9.172;2023-05-10T04:44:41;1.67;;;1.40;;
7150;SDS011;3617;48.836;9.172;2023-05-10T04:47:07;2.27;;;1.77;;
7150;SDS011;3617;48.836;9.172;2023-05-10T04:49:33;3.33;;;2.10;;
7150;SDS011;3617;48.836;9.172;2023-05-10T04:51:59;2.53;;;1.63;;
7150;SDS011;3617;48.836;9.172;2023-05-10T04:54:25;4.63;;;1.80;;
7150;SDS011;3617;48.836;9.172;2023-05-10T04:56:51;4.30;;;1.80;;
7150;SDS011;3617;48.836;9.172;2023-05-10T04:59:17;2.23;;;1.63;;
7150;SDS011;3617;48.836;9.172;2023-05-10T05:01:43;1.90;;;1.70;;
7150;SDS011;3617;48.836;9.172;2023-05-10T05:04:09;3.27;;;1.83;;
7150;SDS011;3617;48.836;9.172;2023-05-10T05:06:35;2.37;;;1.77;;
7150;SDS011;3617;48.836;9.172;2023-05-10T05:09:01;2.63;;;1.47;;
7150;SDS011;3617;48.836;9.172;2023-05-10T05:11:27;2.20;;;1.50;;
7150;SDS011;3617;48.836;9.172;2023-05-10T05:13:53;2.00;;;1.63;;
7150;SDS011;3617;48.836;9.172;2023-05-10T05:16:19;3.17;;;1.60;;
7150;SDS011;3617;48.836;9.172;2023-05-10T05:18:46;1.47;;;1.30;;
7150;SDS011;3617;48.836;9.172;2023-05-10T05:21:15;3.40;;;1.60;;
7150;SDS011;3617;48.836;9.172;2023-05-10T05:23:42;1.60;;;1.30;;
7150;SDS011;3617;48.836;9.172;2023-05-10T05:26:08;4.83;;;1.77;;
7150;SDS011;3617;48.836;9.172;2023-05-10T05:28:34;2.00;;;1.60;;
7150;SDS011;3617;48.836;9.172;2023-05-10T05:31:02;2.37;;;1.40;;
7150;SDS011;3617;48.836;9.172;2023-05-10T05:33:28;3.17;;;1.57;;
7150;SDS011;3617;48.836;9.172;2023-05-10T05:35:54;1.83;;;1.60;;
7150;SDS011;3617;48.836;9.172;2023-05-10T05:38:20;1.70;;;1.40;;
7150;SDS011;3617;48.836;9.172;2023-05-10T05:40:46;3.37;;;1.47;;
7150;SDS011;3617;48.836;9.172;2023-05-10T05:43:12;2.00;;;1.50;;
7150;SDS011;3617;48.836;9.172;2023-05-10T05:45:38;1.97;;;1.53;;
7150;SDS011;3617;48.836;9.172;2023-05-10T05:48:04;2.40;;;1.70;;
7150;SDS011;3617;48.836;9.172;2023-05-10T05:50:31;1.93;;;1.70;;
7150;SDS011;3617;48.836;9.172;2023-05-10T05:52:57;3.17;;;1.57;;
7150;SDS011;3617;48.836;9.172;2023-05-10T05:55:23;3.60;;;1.63;;
7150;SDS011;3617;48.836;9.172;2023-05-10T05:57:50;3.60;;;1.60;;
7150;SDS011;3617;48.836;9.172;2023-05-10T06:00:16;2.23;;;1.80;;
7150;SDS011;3617;48.836;9.172;2023-05-10T06:02:42;2.50;;;1.73;;
7150;SDS011;3617;48.836;9.172;2023-05-10T06:05:09;1.60;;;1.50;;
7150;SDS011;3617;48.836;9.172;2023-05-10T06:07:35;2.20;;;1.50;;
7150;SDS011;3617;48.836;9.172;2023-05-10T06:10:01;2.40;;;1.60;;
7150;SDS011;3617;48.836;9.172;2023-05-10T06:12:27;2.17;;;1.50;;
7150;SDS011;3617;48.836;9.172;2023-05-10T06:14:53;2.27;;;1.90;;
7150;SDS011;3617;48.836;9.172;2023-05-10T06:17:19;3.40;;;1.60;;
7150;SDS011;3617;48.836;9.172;2023-05-10T06:19:46;1.90;;;1.50;;
7150;SDS011;3617;48.836;9.172;2023-05-10T06:22:12;1.40;;;1.30;;
7150;SDS011;3617;48.836;9.172;2023-05-10T06:24:38;1.50;;;1.40;;
7150;SDS011;3617;48.836;9.172;2023-05-10T06:27:04;1.57;;;1.47;;
7150;SDS011;3617;48.836;9.172;2023-05-10T06:29:31;2.13;;;1.63;;
7150;SDS011;3617;48.836;9.172;2023-05-10T06:31:57;1.50;;;1.40;;
7150;SDS011;3617;48.836;9.172;2023-05-10T06:34:23;1.23;;;1.13;;
7150;SDS011;3617;48.836;9.172;2023-05-10T06:36:49;1.83;;;1.40;;
7150;SDS011;3617;48.836;9.172;2023-05-10T06:39:15;2.17;;;1.53;;
7150;SDS011;3617;48.836;9.172;2023-05-10T06:41:41;2.47;;;2.03;;
7150;SDS011;3617;48.836;9.172;2023-05-10T06:44:07;1.73;;;1.43;;
7150;SDS011;3617;48.836;9.172;2023-05-10T06:46:33;3.23;;;1.67;;
7150;SDS011;3617;48.836;9.172;2023-05-10T06:49:00;2.20;;;1.40;;
7150;SDS011;3617;48.836;9.172;2023-05-10T06:51:26;1.83;;;1.40;;
7150;SDS011;3617;48.836;9.172;2023-05-10T06:53:52;1.70;;;1.40;;
7150;SDS011;3617;48.836;9.172;2023-05-10T06:56:18;1.97;;;1.50;;
7150;SDS011;3617;48.836;9.172;2023-05-10T06:58:46;1.83;;;1.50;;
7150;SDS011;3617;48.836;9.172;2023-05-10T07:01:12;1.90;;;1.50;;
7150;SDS011;3617;48.836;9.172;2023-05-10T07:03:38;2.67;;;1.30;;
7150;SDS011;3617;48.836;9.172;2023-05-10T07:06:04;2.80;;;1.50;;
7150;SDS011;3617;48.836;9.172;2023-05-10T07:08:31;6.43;;;1.50;;
7150;SDS011;3617;48.836;9.172;2023-05-10T07:11:01;1.63;;;1.30;;
7150;SDS011;3617;48.836;9.172;2023-05-10T07:13:28;2.70;;;1.20;;
7150;SDS011;3617;48.836;9.172;2023-05-10T07:15:55;1.30;;;1.13;;
7150;SDS011;3617;48.836;9.172;2023-05-10T07:18:21;2.10;;;1.30;;
7150;SDS011;3617;48.836;9.172;2023-05-10T07:20:47;2.07;;;1.17;;
7150;SDS011;3617;48.836;9.172;2023-05-10T07:23:13;1.30;;;1.03;;
7150;SDS011;3617;48.836;9.172;2023-05-10T07:25:39;3.20;;;1.20;;
7150;SDS011;3617;48.836;9.172;2023-05-10T07:28:05;1.77;;;1.10;;
7150;SDS011;3617;48.836;9.172;2023-05-10T07:30:31;2.50;;;1.40;;
7150;SDS011;3617;48.836;9.172;2023-05-10T07:32:57;1.40;;;1.00;;
7150;SDS011;3617;48.836;9.172;2023-05-10T07:35:24;1.83;;;1.17;;
7150;SDS011;3617;48.836;9.172;2023-05-10T07:37:50;1.00;;;0.90;;
7150;SDS011;3617;48.836;9.172;2023-05-10T07:40:16;1.90;;;1.00;;
7150;SDS011;3617;48.836;9.172;2023-05-10T07:42:42;2.20;;;1.10;;
7150;SDS011;3617;48.836;9.172;2023-05-10T07:45:08;1.20;;;1.00;;
7150;SDS011;3617;48.836;9.172;2023-05-10T07:47:34;1.80;;;1.10;;
7150;SDS011;3617;48.836;9.172;2023-05-10T07:50:00;1.60;;;1.00;;
7150;SDS011;3617;48.836;9.172;2023-05-10T07:52:26;0.93;;;0.85;;
7150;SDS011;3617;48.836;9.172;2023-05-10T07:54:52;1.27;;;1.00;;
7150;SDS011;3617;48.836;9.172;2023-05-10T07:57:18;2.10;;;1.10;;
7150;SDS011;3617;48.836;9.172;2023-05-10T07:59:44;1.33;;;0.90;;
7150;SDS011;3617;48.836;9.172;2023-05-10T08:02:10;1.00;;;0.90;;
7150;SDS011;3617;48.836;9.172;2023-05-10T08:04:36;0.80;;;0.80;;
7150;SDS011;3617;48.836;9.172;2023-05-10T08:07:02;1.53;;;1.10;;
7150;SDS011;3617;48.836;9.172;2023-05-10T08:09:28;0.97;;;0.83;;
7150;SDS011;3617;48.836;9.172;2023-05-10T08:11:54;0.90;;;0.87;;
7150;SDS011;3617;48.836;9.172;2023-05-10T08:14:20;3.80;;;0.90;;
7150;SDS011;3617;48.836;9.172;2023-05-10T08:16:46;1.10;;;0.90;;
7150;SDS011;3617;48.836;9.172;2023-05-10T08:19:12;1.30;;;0.93;;
7150;SDS011;3617;48.836;9.172;2023-05-10T08:21:38;3.87;;;1.10;;
7150;SDS011;3617;48.836;9.172;2023-05-10T08:24:07;1.57;;;1.00;;
7150;SDS011;3617;48.836;9.172;2023-05-10T08:26:33;2.30;;;1.07;;
7150;SDS011;3617;48.836;9.172;2023-05-10T08:28:59;0.80;;;0.80;;
7150;SDS011;3617;48.836;9.172;2023-05-10T08:31:25;0.97;;;0.90;;
7150;SDS011;3617;48.836;9.172;2023-05-10T08:33:51;0.77;;;0.77;;
7150;SDS011;3617;48.836;9.172;2023-05-10T08:36:17;0.60;;;0.60;;
7150;SDS011;3617;48.836;9.172;2023-05-10T08:38:47;1.17;;;0.90;;
7150;SDS011;3617;48.836;9.172;2023-05-10T08:41:13;0.80;;;0.80;;
7150;SDS011;3617;48.836;9.172;2023-05-10T08:43:39;0.70;;;0.70;;
7150;SDS011;3617;48.836;9.172;2023-05-10T08:46:10;1.03;;;0.80;;
7150;SDS011;3617;48.836;9.172;2023-05-10T08:48:37;1.37;;;0.70;;
7150;SDS011;3617;48.836;9.172;2023-05-10T08:51:03;2.00;;;0.90;;
7150;SDS011;3617;48.836;9.172;2023-05-10T08:53:30;0.87;;;0.60;;
7150;SDS011;3617;48.836;9.172;2023-05-10T08:55:56;1.07;;;0.60;;
7150;SDS011;3617;48.836;9.172;2023-05-10T08:58:23;3.43;;;0.60;;
7150;SDS011;3617;48.836;9.172;2023-05-10T09:00:49;0.67;;;0.60;;
7150;SDS011;3617;48.836;9.172;2023-05-10T09:03:18;0.77;;;0.60;;
7150;SDS011;3617;48.836;9.172;2023-05-10T09:05:44;0.60;;;0.60;;
7150;SDS011;3617;48.836;9.172;2023-05-10T09:08:10;0.70;;;0.70;;
7150;SDS011;3617;48.836;9.172;2023-05-10T09:10:38;1.98;;;1.00;;
7150;SDS011;3617;48.836;9.172;2023-05-10T09:13:05;0.70;;;0.60;;
7150;SDS011;3617;48.836;9.172;2023-05-10T09:15:31;1.83;;;0.60;;
7150;SDS011;3617;48.836;9.172;2023-05-10T09:17:57;0.80;;;0.60;;
7150;SDS011;3617;48.836;9.172;2023-05-10T09:20:26;0.85;;;0.57;;
7150;SDS011;3617;48.836;9.172;2023-05-10T09:22:52;0.60;;;0.52;;
7150;SDS011;3617;48.836;9.172;2023-05-10T09:25:19;2.15;;;0.60;;
7150;SDS011;3617;48.836;9.172;2023-05-10T09:27:46;0.93;;;0.60;;
7150;SDS011;3617;48.836;9.172;2023-05-10T09:30:30;0.60;;;0.60;;
7150;SDS011;3617;48.836;9.172;2023-05-10T09:32:57;0.90;;;0.60;;
7150;SDS011;3617;48.836;9.172;2023-05-10T09:35:29;0.82;;;0.63;;
7150;SDS011;3617;48.836;9.172;2023-05-10T09:37:56;0.88;;;0.60;;
7150;SDS011;3617;48.836;9.172;2023-05-10T09:40:26;0.70;;;0.70;;
7150;SDS011;3617;48.836;9.172;2023-05-10T09:43:08;0.60;;;0.60;;
7150;SDS011;3617;48.836;9.172;2023-05-10T09:45:35;0.50;;;0.50;;
7150;SDS011;3617;48.836;9.172;2023-05-10T09:48:02;0.65;;;0.60;;
7150;SDS011;3617;48.836;9.172;2023-05-10T09:50:29;0.50;;;0.50;;
7150;SDS011;3617;48.836;9.172;2023-05-10T09:52:58;0.52;;;0.50;;
7150;SDS011;3617;48.836;9.172;2023-05-10T09:55:44;1.30;;;0.63;;
7150;SDS011;3617;48.836;9.172;2023-05-10T09:58:10;1.17;;;0.70;;
7150;SDS011;3617;48.836;9.172;2023-05-10T10:00:37;1.23;;;0.80;;
7150;SDS011;3617;48.836;9.172;2023-05-10T10:03:04;0.73;;;0.70;;
7150;SDS011;3617;48.836;9.172;2023-05-10T10:05:34;0.50;;;0.50;;
7150;SDS011;3617;48.836;9.172;2023-05-10T10:08:01;0.50;;;0.50;;
7150;SDS011;3617;48.836;9.172;2023-05-10T10:10:28;1.35;;;0.65;;
7150;SDS011;3617;48.836;9.172;2023-05-10T10:12:55;1.50;;;0.80;;
7150;SDS011;3617;48.836;9.172;2023-05-10T10:15:21;1.17;;;0.50;;
7150;SDS011;3617;48.836;9.172;2023-05-10T10:17:48;0.60;;;0.60;;
7150;SDS011;3617;48.836;9.172;2023-05-10T10:20:14;0.88;;;0.68;;
7150;SDS011;3617;48.836;9.172;2023-05-10T10:22:40;0.70;;;0.60;;
7150;SDS011;3617;48.836;9.172;2023-05-10T10:25:08;0.70;;;0.70;;
7150;SDS011;3617;48.836;9.172;2023-05-10T10:27:43;2.45;;;0.52;;
7150;SDS011;3617;48.836;9.172;2023-05-10T10:30:21;2.92;;;1.00;;
7150;SDS011;3617;48.836;9.172;2023-05-10T10:35:34;1.45;;;0.63;;
7150;SDS011;3617;48.836;9.172;2023-05-10T10:38:00;0.85;;;0.70;;
7150;SDS011;3617;48.836;9.172;2023-05-10T10:40:28;0.65;;;0.65;;
7150;SDS011;3617;48.836;9.172;2023-05-10T10:42:54;1.25;;;0.80;;
7150;SDS011;3617;48.836;9.172;2023-05-10T10:45:21;0.63;;;0.63;;
7150;SDS011;3617;48.836;9.172;2023-05-10T10:47:47;0.50;;;0.50;;
7150;SDS011;3617;48.836;9.172;2023-05-10T10:50:14;1.63;;;0.60;;
7150;SDS011;3617;48.836;9.172;2023-05-10T10:52:43;0.88;;;0.52;;
7150;SDS011;3617;48.836;9.172;2023-05-10T10:55:11;0.50;;;0.50;;
7150;SDS011;3617;48.836;9.172;2023-05-10T11:00:22;4.70;;;0.70;;
7150;SDS011;3617;48.836;9.172;2023-05-10T11:07:57;0.52;;;0.52;;
7150;SDS011;3617;48.836;9.172;2023-05-10T11:10:23;0.40;;;0.40;;
7150;SDS011;3617;48.836;9.172;2023-05-10T11:12:53;1.95;;;0.80;;
7150;SDS011;3617;48.836;9.172;2023-05-10T11:15:29;1.27;;;0.55;;
7150;SDS011;3617;48.836;9.172;2023-05-10T11:17:55;1.67;;;0.68;;
7150;SDS011;3617;48.836;9.172;2023-05-10T11:20:21;0.90;;;0.70;;
7150;SDS011;3617;48.836;9.172;2023-05-10T11:22:53;1.75;;;0.65;;
7150;SDS011;3617;48.836;9.172;2023-05-10T11:25:19;0.60;;;0.60;;
7150;SDS011;3617;48.836;9.172;2023-05-10T11:27:47;2.35;;;0.60;;
7150;SDS011;3617;48.836;9.172;2023-05-10T11:30:13;0.80;;;0.70;;
7150;SDS011;3617;48.836;9.172;2023-05-10T11:32:40;0.70;;;0.52;;
7150;SDS011;3617;48.836;9.172;2023-05-10T11:35:07;1.08;;;0.57;;
7150;SDS011;3617;48.836;9.172;2023-05-10T11:37:33;0.60;;;0.60;;
7150;SDS011;3617;48.836;9.172;2023-05-10T11:39:59;1.30;;;0.60;;
7150;SDS011;3617;48.836;9.172;2023-05-10T11:42:26;0.65;;;0.50;;
7150;SDS011;3617;48.836;9.172;2023-05-10T11:44:53;1.83;;;0.95;;
7150;SDS011;3617;48.836;9.172;2023-05-10T11:47:19;0.80;;;0.60;;
7150;SDS011;3617;48.836;9.172;2023-05-10T11:49:45;2.05;;;0.75;;
7150;SDS011;3617;48.836;9.172;2023-05-10T11:52:11;2.05;;;0.70;;
7150;SDS011;3617;48.836;9.172;2023-05-10T11:54:37;0.90;;;0.82;;
7150;SDS011;3617;48.836;9.172;2023-05-10T11:57:03;2.85;;;1.00;;
7150;SDS011;3617;48.836;9.172;2023-05-10T11:59:29;2.97;;;1.20;;
7150;SDS011;3617;48.836;9.172;2023-05-10T12:01:55;2.25;;;0.88;;
7150;SDS011;3617;48.836;9.172;2023-05-10T12:04:22;7.05;;;0.90;;
7150;SDS011;3617;48.836;9.172;2023-05-10T12:06:48;0.95;;;0.88;;
7150;SDS011;3617;48.836;9.172;2023-05-10T12:09:14;1.40;;;0.98;;
7150;SDS011;3617;48.836;9.172;2023-05-10T12:11:40;1.73;;;0.82;;
7150;SDS011;3617;48.836;9.172;2023-05-10T12:14:07;1.45;;;0.90;;
7150;SDS011;3617;48.836;9.172;2023-05-10T12:16:34;1.27;;;0.80;;
7150;SDS011;3617;48.836;9.172;2023-05-10T12:19:01;2.50;;;0.98;;
7150;SDS011;3617;48.836;9.172;2023-05-10T12:21:27;0.77;;;0.73;;
7150;SDS011;3617;48.836;9.172;2023-05-10T12:23:59;1.20;;;0.75;;
7150;SDS011;3617;48.836;9.172;2023-05-10T12:26:25;4.45;;;1.10;;
7150;SDS011;3617;48.836;9.172;2023-05-10T12:28:52;2.90;;;0.90;;
7150;SDS011;3617;48.836;9.172;2023-05-10T12:31:18;1.05;;;0.85;;
7150;SDS011;3617;48.836;9.172;2023-05-10T12:33:45;2.75;;;1.00;;
7150;SDS011;3617;48.836;9.172;2023-05-10T12:36:12;2.20;;;0.80;;
7150;SDS011;3617;48.836;9.172;2023-05-10T12:38:40;2.05;;;1.00;;
7150;SDS011;3617;48.836;9.172;2023-05-10T12:41:17;1.50;;;0.90;;
7150;SDS011;3617;48.836;9.172;2023-05-10T12:43:44;2.67;;;0.80;;
7150;SDS011;3617;48.836;9.172;2023-05-10T12:46:16;2.45;;;0.73;;
7150;SDS011;3617;48.836;9.172;2023-05-10T12:48:44;1.50;;;1.05;;
7150;SDS011;3617;48.836;9.172;2023-05-10T12:51:19;1.00;;;0.88;;
7150;SDS011;3617;48.836;9.172;2023-05-10T12:53:47;0.90;;;0.80;;
7150;SDS011;3617;48.836;9.172;2023-05-10T12:56:13;2.88;;;1.00;;
7150;SDS011;3617;48.836;9.172;2023-05-10T12:58:39;1.75;;;0.85;;
7150;SDS011;3617;48.836;9.172;2023-05-10T13:01:05;1.33;;;0.90;;
7150;SDS011;3617;48.836;9.172;2023-05-10T13:03:31;1.17;;;0.70;;
7150;SDS011;3617;48.836;9.172;2023-05-10T13:05:57;7.00;;;1.00;;
7150;SDS011;3617;48.836;9.172;2023-05-10T13:08:23;0.60;;;0.60;;
7150;SDS011;3617;48.836;9.172;2023-05-10T13:10:50;1.15;;;0.60;;
7150;SDS011;3617;48.836;9.172;2023-05-10T13:13:15;0.68;;;0.68;;
7150;SDS011;3617;48.836;9.172;2023-05-10T13:15:43;0.90;;;0.70;;
7150;SDS011;3617;48.836;9.172;2023-05-10T13:18:09;1.35;;;0.68;;
7150;SDS011;3617;48.836;9.172;2023-05-10T13:20:35;1.40;;;0.95;;
7150;SDS011;3617;48.836;9.172;2023-05-10T13:23:01;0.70;;;0.70;;
7150;SDS011;3617;48.836;9.172;2023-05-10T13:25:27;0.80;;;0.80;;
7150;SDS011;3617;48.836;9.172;2023-05-10T13:27:53;0.70;;;0.60;;
7150;SDS011;3617;48.836;9.172;2023-05-10T13:30:19;1.13;;;0.90;;
7150;SDS011;3617;48.836;9.172;2023-05-10T13:32:45;3.72;;;0.90;;
7150;SDS011;3617;48.836;9.172;2023-05-10T13:35:11;0.70;;;0.70;;
7150;SDS011;3617;48.836;9.172;2023-05-10T13:37:37;0.80;;;0.80;;
7150;SDS011;3617;48.836;9.172;2023-05-10T13:40:03;1.17;;;0.80;;
7150;SDS011;3617;48.836;9.172;2023-05-10T13:42:30;1.25;;;0.90;;
7150;SDS011;3617;48.836;9.172;2023-05-10T13:44:58;0.60;;;0.60;;
7150;SDS011;3617;48.836;9.172;2023-05-10T13:47:24;0.70;;;0.70;;
7150;SDS011;3617;48.836;9.172;2023-05-10T13:49:50;1.30;;;0.93;;
7150;SDS011;3617;48.836;9.172;2023-05-10T13:52:16;2.70;;;0.80;;
7150;SDS011;3617;48.836;9.172;2023-05-10T13:54:43;1.42;;;0.80;;
7150;SDS011;3617;48.836;9.172;2023-05-10T13:57:09;0.88;;;0.80;;
7150;SDS011;3617;48.836;9.172;2023-05-10T13:59:37;1.58;;;0.80;;
7150;SDS011;3617;48.836;9.172;2023-05-10T14:02:03;1.38;;;0.98;;
7150;SDS011;3617;48.836;9.172;2023-05-10T14:04:29;1.67;;;0.70;;
7150;SDS011;3617;48.836;9.172;2023-05-10T14:06:56;2.60;;;0.95;;
7150;SDS011;3617;48.836;9.172;2023-05-10T14:09:22;1.30;;;0.95;;
7150;SDS011;3617;48.836;9.172;2023-05-10T14:11:49;1.15;;;0.90;;
7150;SDS011;3617;48.836;9.172;2023-05-10T14:14:14;0.80;;;0.80;;
7150;SDS011;3617;48.836;9.172;2023-05-10T14:16:43;1.40;;;1.25;;
7150;SDS011;3617;48.836;9.172;2023-05-10T14:19:10;1.30;;;0.80;;
7150;SDS011;3617;48.836;9.172;2023-05-10T14:21:36;1.02;;;0.68;;
7150;SDS011;3617;48.836;9.172;2023-05-10T14:24:02;1.38;;;0.90;;
7150;SDS011;3617;48.836;9.172;2023-05-10T14:26:28;1.33;;;0.80;;
7150;SDS011;3617;48.836;9.172;2023-05-10T14:28:54;1.55;;;0.70;;
7150;SDS011;3617;48.836;9.172;2023-05-10T14:31:20;1.20;;;0.70;;
7150;SDS011;3617;48.836;9.172;2023-05-10T14:33:48;0.90;;;0.80;;
7150;SDS011;3617;48.836;9.172;2023-05-10T14:36:14;1.45;;;0.80;;
7150;SDS011;3617;48.836;9.172;2023-05-10T14:38:40;0.80;;;0.80;;
7150;SDS011;3617;48.836;9.172;2023-05-10T14:41:06;0.90;;;0.75;;
7150;SDS011;3617;48.836;9.172;2023-05-10T14:43:32;0.95;;;0.85;;
7150;SDS011;3617;48.836;9.172;2023-05-10T14:45:59;2.67;;;1.02;;
7150;SDS011;3617;48.836;9.172;2023-05-10T14:48:25;2.58;;;0.90;;
7150;SDS011;3617;48.836;9.172;2023-05-10T14:50:51;1.08;;;0.65;;
7150;SDS011;3617;48.836;9.172;2023-05-10T14:53:17;2.92;;;0.90;;
7150;SDS011;3617;48.836;9.172;2023-05-10T14:55:43;1.23;;;0.70;;
7150;SDS011;3617;48.836;9.172;2023-05-10T14:58:09;1.02;;;0.90;;
7150;SDS011;3617;48.836;9.172;2023-05-10T15:00:35;0.75;;;0.70;;
7150;SDS011;3617;48.836;9.172;2023-05-10T15:03:01;0.77;;;0.70;;
7150;SDS011;3617;48.836;9.172;2023-05-10T15:05:28;6.20;;;0.70;;
7150;SDS011;3617;48.836;9.172;2023-05-10T15:07:54;0.63;;;0.63;;
7150;SDS011;3617;48.836;9.172;2023-05-10T15:10:20;5.47;;;1.00;;
7150;SDS011;3617;48.836;9.172;2023-05-10T15:12:47;2.13;;;0.90;;
7150;SDS011;3617;48.836;9.172;2023-05-10T15:15:13;1.92;;;0.80;;
7150;SDS011;3617;48.836;9.172;2023-05-10T15:17:39;0.63;;;0.63;;
7150;SDS011;3617;48.836;9.172;2023-05-10T15:20:06;2.35;;;0.88;;
7150;SDS011;3617;48.836;9.172;2023-05-10T15:22:32;0.73;;;0.70;;
7150;SDS011;3617;48.836;9.172;2023-05-10T15:24:58;0.98;;;0.90;;
7150;SDS011;3617;48.836;9.172;2023-05-10T15:27:24;2.30;;;0.80;;
7150;SDS011;3617;48.836;9.172;2023-05-10T15:29:51;0.80;;;0.80;;
7150;SDS011;3617;48.836;9.172;2023-05-10T15:32:17;0.93;;;0.82;;
7150;SDS011;3617;48.836;9.172;2023-05-10T15:34:43;1.10;;;0.77;;
7150;SDS011;3617;48.836;9.172;2023-05-10T15:37:09;0.70;;;0.70;;
7150;SDS011;3617;48.836;9.172;2023-05-10T15:39:35;4.10;;;0.90;;
7150;SDS011;3617;48.836;9.172;2023-05-10T15:42:01;0.73;;;0.73;;